Terminal Aerodrome Forecast
Issued by NWS

Home | Current Version | Previous Version | Text Only | Print | Product List | Glossary On
Versions: 1 2 3 4 5 6 7 8 9 10 11 12 13 14
000
FTUS44 KBMX 271800 AAA
TAFTCL
TAF AMD
KTCL 271856Z 2719/2818 13005KT P6SM OVC050
     FM272100 14006KT 5SM RA BKN020
     FM280300 14007KT 2SM RA BR BKN007 OVC015=

USA.gov is the U.S. government's official web portal to all federal, state and local government web resources and services.